Time,TemperatureF,DewpointF,PressureIn,WindDirection,WindDirectionDegrees,WindSpeedMPH,WindSpeedGustMPH,Humidity,HourlyPrecipIn,Conditions,Clouds,dailyrainin,SoftwareType,DateUTC
2013-03-01 00:02:00,23.0,14.0,-100.00,West,263,25.0,34.0,70,0.00,,,-99.99,,2013-03-01 07:02:00,
2013-03-01 00:11:00,23.0,14.0,-100.00,West,263,26.0,35.0,69,0.00,,,-99.99,,2013-03-01 07:11:00,
2013-03-01 00:22:00,23.0,14.0,-100.00,West,261,26.0,34.0,68,0.00,,,-99.99,,2013-03-01 07:22:00,
2013-03-01 00:32:00,22.0,14.0,-100.00,West,260,24.0,32.0,69,0.00,,,-99.99,,2013-03-01 07:32:00,
2013-03-01 00:42:00,23.0,14.0,-100.00,WSW,258,24.0,34.0,68,0.00,,,-99.99,,2013-03-01 07:42:00,
2013-03-01 00:52:00,23.0,13.0,-100.00,WSW,258,27.0,37.0,66,0.00,,,-99.99,,2013-03-01 07:52:00,
2013-03-01 01:02:00,23.0,14.0,-100.00,West,263,27.0,36.0,67,0.00,,,-99.99,,2013-03-01 08:02:00,
2013-03-01 01:11:00,22.0,14.0,-100.00,West,263,27.0,37.0,69,0.00,,,-99.99,,2013-03-01 08:11:00,
2013-03-01 01:22:00,23.0,13.0,-100.00,West,265,26.0,34.0,66,0.00,,,-99.99,,2013-03-01 08:22:00,
2013-03-01 01:32:00,23.0,13.0,-100.00,West,265,28.0,37.0,65,0.00,,,-99.99,,2013-03-01 08:32:00,
2013-03-01 01:42:00,23.0,13.0,-100.00,West,263,28.0,36.0,65,0.00,,,-99.99,,2013-03-01 08:42:00,
2013-03-01 01:52:00,23.0,13.0,-100.00,West,263,27.0,37.0,64,0.00,,,-99.99,,2013-03-01 08:52:00,
2013-03-01 02:02:00,23.0,13.0,-100.00,West,261,26.0,33.0,66,0.00,,,-99.99,,2013-03-01 09:02:00,
2013-03-01 02:11:00,23.0,12.0,-100.00,West,260,26.0,37.0,63,0.00,,,-99.99,,2013-03-01 09:11:00,
2013-03-01 02:22:00,23.0,13.0,-100.00,WSW,258,26.0,34.0,65,0.00,,,-99.99,,2013-03-01 09:22:00,
2013-03-01 02:32:00,22.0,13.0,-100.00,WSW,253,26.0,35.0,68,0.00,,,-99.99,,2013-03-01 09:32:00,
2013-03-01 02:42:00,23.0,13.0,-100.00,WSW,256,24.0,32.0,65,0.00,,,-99.99,,2013-03-01 09:42:00,
2013-03-01 02:52:00,23.0,13.0,-100.00,WSW,254,25.0,32.0,67,0.00,,,-99.99,,2013-03-01 09:52:00,
2013-03-01 03:02:00,22.0,13.0,-100.00,WSW,254,24.0,31.0,67,0.00,,,-99.99,,2013-03-01 10:02:00,
2013-03-01 03:11:00,22.0,14.0,-100.00,WSW,253,25.0,32.0,70,0.00,,,-99.99,,2013-03-01 10:11:00,
2013-03-01 03:21:00,22.0,14.0,-100.00,WSW,250,27.0,34.0,72,0.00,,,-99.99,,2013-03-01 10:21:00,
2013-03-01 03:32:00,22.0,14.0,-100.00,WSW,251,26.0,39.0,70,0.00,,,-99.99,,2013-03-01 10:32:00,
2013-03-01 03:42:00,22.0,14.0,-100.00,WSW,250,26.0,39.0,71,0.00,,,-99.99,,2013-03-01 10:42:00,
2013-03-01 03:52:00,22.0,13.0,-100.00,WSW,248,26.0,34.0,67,0.00,,,-99.99,,2013-03-01 10:52:00,
2013-03-01 04:01:00,22.0,14.0,-100.00,WSW,248,27.0,34.0,71,0.00,,,-99.99,,2013-03-01 11:01:00,
2013-03-01 04:11:00,22.0,14.0,-100.00,WSW,250,26.0,34.0,71,0.00,,,-99.99,,2013-03-01 11:11:00,
2013-03-01 04:22:00,22.0,14.0,-100.00,WSW,248,27.0,35.0,72,0.00,,,-99.99,,2013-03-01 11:22:00,
2013-03-01 04:32:00,22.0,14.0,-100.00,WSW,250,26.0,34.0,72,0.00,,,-99.99,,2013-03-01 11:32:00,
2013-03-01 04:42:00,21.0,14.0,-100.00,WSW,248,29.0,37.0,74,0.00,,,-99.99,,2013-03-01 11:42:00,
2013-03-01 04:52:00,21.0,15.0,-100.00,WSW,250,28.0,35.0,76,0.00,,,-99.99,,2013-03-01 11:52:00,
2013-03-01 05:01:00,21.0,15.0,-100.00,WSW,250,28.0,37.0,78,0.00,,,-99.99,,2013-03-01 12:01:00,
2013-03-01 05:11:00,21.0,16.0,-100.00,WSW,247,30.0,37.0,78,0.00,,,-99.99,,2013-03-01 12:11:00,
2013-03-01 05:21:00,22.0,16.0,-100.00,WSW,250,27.0,37.0,78,0.00,,,-99.99,,2013-03-01 12:21:00,
2013-03-01 05:32:00,22.0,16.0,-100.00,WSW,253,25.0,32.0,78,0.00,,,-99.99,,2013-03-01 12:32:00,
2013-03-01 05:42:00,23.0,16.0,-100.00,WSW,248,26.0,35.0,75,0.00,,,-99.99,,2013-03-01 12:42:00,
2013-03-01 05:52:00,23.0,17.0,-100.00,WSW,250,26.0,34.0,77,0.00,,,-99.99,,2013-03-01 12:52:00,
2013-03-01 06:01:00,23.0,17.0,-100.00,WSW,253,26.0,34.0,78,0.00,,,-99.99,,2013-03-01 13:01:00,
2013-03-01 06:11:00,23.0,17.0,-100.00,WSW,253,24.0,35.0,78,0.00,,,-99.99,,2013-03-01 13:11:00,
2013-03-01 06:21:00,23.0,17.0,-100.00,WSW,257,27.0,39.0,79,0.00,,,-99.99,,2013-03-01 13:21:00,
2013-03-01 06:32:00,23.0,17.0,-100.00,WSW,258,29.0,37.0,79,0.00,,,-99.99,,2013-03-01 13:32:00,
2013-03-01 06:41:00,23.0,18.0,-100.00,West,260,30.0,41.0,81,0.00,,,-99.99,,2013-03-01 13:41:00,
2013-03-01 06:51:00,23.0,18.0,-100.00,West,260,26.0,34.0,79,0.00,,,-99.99,,2013-03-01 13:51:00,
2013-03-01 07:01:00,22.0,18.0,-100.00,West,261,23.0,31.0,81,0.00,,,-99.99,,2013-03-01 14:01:00,
2013-03-01 07:11:00,23.0,18.0,-100.00,West,267,25.0,40.0,79,0.00,,,-99.99,,2013-03-01 14:11:00,
2013-03-01 07:21:00,23.0,18.0,-100.00,West,264,28.0,37.0,80,0.00,,,-99.99,,2013-03-01 14:21:00,
2013-03-01 07:32:00,23.0,18.0,-100.00,WSW,258,27.0,37.0,82,0.00,,,-99.99,,2013-03-01 14:32:00,
2013-03-01 07:41:00,23.0,17.0,-100.00,WSW,256,29.0,44.0,78,0.00,,,-99.99,,2013-03-01 14:41:00,
2013-03-01 07:52:00,24.0,18.0,-100.00,WSW,254,29.0,39.0,78,0.00,,,-99.99,,2013-03-01 14:52:00,
2013-03-01 08:01:00,24.0,18.0,-100.00,WSW,256,30.0,42.0,79,0.00,,,-99.99,,2013-03-01 15:01:00,
2013-03-01 08:11:00,24.0,18.0,-100.00,WSW,257,33.0,42.0,79,0.00,,,-99.99,,2013-03-01 15:11:00,
2013-03-01 08:21:00,24.0,18.0,-100.00,WSW,257,34.0,45.0,79,0.00,,,-99.99,,2013-03-01 15:21:00,
2013-03-01 08:31:00,24.0,19.0,-100.00,WSW,258,34.0,42.0,81,0.00,,,-99.99,,2013-03-01 15:31:00,
2013-03-01 08:42:00,24.0,19.0,-100.00,WSW,257,34.0,42.0,80,0.00,,,-99.99,,2013-03-01 15:42:00,
2013-03-01 08:52:00,24.0,19.0,-100.00,WSW,258,34.0,43.0,79,0.00,,,-99.99,,2013-03-01 15:52:00,
2013-03-01 09:01:00,25.0,19.0,-100.00,West,260,32.0,41.0,79,0.00,,,-99.99,,2013-03-01 16:01:00,
2013-03-01 09:11:00,25.0,20.0,-100.00,West,261,31.0,39.0,80,0.00,,,-99.99,,2013-03-01 16:11:00,
2013-03-01 09:21:00,25.0,20.0,-100.00,West,261,30.0,40.0,79,0.00,,,-99.99,,2013-03-01 16:21:00,
2013-03-01 09:32:00,26.0,20.0,-100.00,WSW,258,31.0,41.0,76,0.00,,,-99.99,,2013-03-01 16:32:00,
2013-03-01 09:41:00,26.0,20.0,-100.00,WSW,256,30.0,42.0,76,0.00,,,-99.99,,2013-03-01 16:41:00,
2013-03-01 09:51:00,27.0,20.0,-100.00,WSW,257,30.0,39.0,74,0.00,,,-99.99,,2013-03-01 16:51:00,
2013-03-01 10:01:00,27.0,20.0,-100.00,West,260,29.0,40.0,75,0.00,,,-99.99,,2013-03-01 17:01:00,
2013-03-01 10:11:00,28.0,20.0,-100.00,WSW,257,28.0,39.0,73,0.00,,,-99.99,,2013-03-01 17:11:00,
2013-03-01 10:21:00,28.0,20.0,-100.00,WSW,256,27.0,35.0,71,0.00,,,-99.99,,2013-03-01 17:21:00,
2013-03-01 10:32:00,29.0,20.0,-100.00,WSW,253,29.0,37.0,71,0.00,,,-99.99,,2013-03-01 17:32:00,
2013-03-01 10:41:00,29.0,21.0,-100.00,WSW,257,29.0,39.0,74,0.00,,,-99.99,,2013-03-01 17:41:00,
2013-03-01 10:52:00,29.0,20.0,-100.00,West,260,30.0,40.0,70,0.00,,,-99.99,,2013-03-01 17:52:00,
2013-03-01 11:01:00,29.0,20.0,-100.00,West,260,31.0,46.0,69,0.00,,,-99.99,,2013-03-01 18:01:00,
2013-03-01 11:12:00,29.0,21.0,-100.00,WSW,258,31.0,46.0,72,0.00,,,-99.99,,2013-03-01 18:12:00,
2013-03-01 11:22:00,29.0,22.0,-100.00,West,261,31.0,42.0,72,0.00,,,-99.99,,2013-03-01 18:22:00,
2013-03-01 11:31:00,30.0,21.0,-100.00,West,260,32.0,43.0,71,0.00,,,-99.99,,2013-03-01 18:31:00,
2013-03-01 11:41:00,30.0,22.0,-100.00,WSW,257,31.0,43.0,71,0.00,,,-99.99,,2013-03-01 18:41:00,
2013-03-01 11:52:00,31.0,22.0,-100.00,WSW,256,29.0,39.0,69,0.00,,,-99.99,,2013-03-01 18:52:00,
2013-03-01 12:01:00,31.0,23.0,-100.00,West,261,30.0,42.0,71,0.00,,,-99.99,,2013-03-01 19:01:00,
2013-03-01 12:11:00,31.0,22.0,-100.00,West,261,30.0,42.0,68,0.00,,,-99.99,,2013-03-01 19:11:00,
2013-03-01 12:21:00,31.0,22.0,-100.00,West,261,28.0,37.0,68,0.00,,,-99.99,,2013-03-01 19:21:00,
2013-03-01 12:32:00,32.0,22.0,-100.00,WSW,257,29.0,39.0,65,0.00,,,-99.99,,2013-03-01 19:32:00,
2013-03-01 12:42:00,32.0,22.0,-100.00,WSW,258,28.0,38.0,65,0.00,,,-99.99,,2013-03-01 19:42:00,
2013-03-01 12:51:00,32.0,22.0,-100.00,WSW,254,30.0,38.0,66,0.00,,,-99.99,,2013-03-01 19:51:00,
2013-03-01 13:01:00,32.0,22.0,-100.00,West,260,30.0,40.0,67,0.00,,,-99.99,,2013-03-01 20:01:00,
2013-03-01 13:11:00,33.0,22.0,-100.00,WSW,256,29.0,37.0,64,0.00,,,-99.99,,2013-03-01 20:11:00,
2013-03-01 13:21:00,32.0,21.0,-100.00,WSW,256,28.0,37.0,63,0.00,,,-99.99,,2013-03-01 20:21:00,
2013-03-01 13:31:00,33.0,21.0,-100.00,WSW,257,27.0,40.0,60,0.00,,,-99.99,,2013-03-01 20:31:00,
2013-03-01 13:41:00,34.0,21.0,-100.00,West,263,27.0,39.0,60,0.00,,,-99.99,,2013-03-01 20:41:00,
2013-03-01 13:52:00,33.0,22.0,-100.00,WSW,258,25.0,35.0,63,0.00,,,-99.99,,2013-03-01 20:52:00,
2013-03-01 14:01:00,34.0,22.0,-100.00,West,263,27.0,39.0,61,0.00,,,-99.99,,2013-03-01 21:01:00,
2013-03-01 14:11:00,35.0,22.0,-100.00,West,263,24.0,33.0,60,0.00,,,-99.99,,2013-03-01 21:11:00,
2013-03-01 14:21:00,34.0,22.0,-100.00,West,261,27.0,34.0,62,0.00,,,-99.99,,2013-03-01 21:21:00,
2013-03-01 14:31:00,34.0,22.0,-100.00,West,263,26.0,34.0,62,0.00,,,-99.99,,2013-03-01 21:31:00,
2013-03-01 14:41:00,34.0,22.0,-100.00,West,265,28.0,37.0,63,0.00,,,-99.99,,2013-03-01 21:41:00,
2013-03-01 14:51:00,33.0,23.0,-100.00,West,265,29.0,38.0,66,0.00,,,-99.99,,2013-03-01 21:51:00,
2013-03-01 15:01:00,33.0,23.0,-100.00,West,267,27.0,37.0,66,0.00,,,-99.99,,2013-03-01 22:01:00,
2013-03-01 15:11:00,33.0,24.0,-100.00,West,263,28.0,43.0,70,0.00,,,-99.99,,2013-03-01 22:11:00,
2013-03-01 15:21:00,32.0,24.0,-100.00,West,260,30.0,39.0,73,0.01,,,-99.99,,2013-03-01 22:21:00,
2013-03-01 15:31:00,33.0,25.0,-100.00,West,260,29.0,38.0,73,0.00,,,-99.99,,2013-03-01 22:31:00,
2013-03-01 15:41:00,32.0,24.0,-100.00,WSW,258,31.0,42.0,72,0.01,,,-99.99,,2013-03-01 22:41:00,
2013-03-01 15:51:00,32.0,24.0,-100.00,West,260,29.0,41.0,73,0.00,,,-99.99,,2013-03-01 22:51:00,
2013-03-01 16:01:00,32.0,25.0,-100.00,WSW,257,29.0,40.0,73,0.00,,,-99.99,,2013-03-01 23:01:00,
2013-03-01 16:11:00,32.0,25.0,-100.00,West,261,29.0,38.0,73,0.00,,,-99.99,,2013-03-01 23:11:00,
2013-03-01 16:21:00,32.0,25.0,-100.00,West,263,28.0,42.0,76,0.00,,,-99.99,,2013-03-01 23:21:00,
2013-03-01 16:31:00,32.0,26.0,-100.00,West,265,30.0,39.0,77,0.00,,,-99.99,,2013-03-01 23:31:00,
2013-03-01 16:41:00,32.0,26.0,-100.00,West,268,29.0,40.0,76,0.00,,,-99.99,,2013-03-01 23:41:00,
2013-03-01 16:52:00,33.0,25.0,-100.00,West,271,29.0,42.0,74,0.01,,,-99.99,,2013-03-01 23:52:00,
2013-03-01 17:02:00,32.0,26.0,-100.00,West,275,27.0,40.0,78,0.01,,,-99.99,,2013-03-02 00:02:00,
2013-03-01 17:11:00,32.0,26.0,-100.00,West,277,26.0,37.0,79,0.01,,,-99.99,,2013-03-02 00:11:00,
2013-03-01 17:21:00,32.0,26.0,-100.00,West,277,26.0,35.0,78,0.10,,,-99.99,,2013-03-02 00:21:00,
2013-03-01 17:32:00,32.0,26.0,-100.00,West,274,26.0,35.0,78,0.10,,,-99.99,,2013-03-02 00:32:00,
2013-03-01 17:42:00,32.0,27.0,-100.00,West,277,27.0,38.0,81,0.18,,,-99.99,,2013-03-02 00:42:00,
2013-03-01 17:52:00,32.0,26.0,-100.00,West,278,27.0,35.0,79,0.00,,,-99.99,,2013-03-02 00:52:00,
2013-03-01 18:01:00,32.0,26.0,-100.00,West,277,24.0,35.0,78,0.01,,,-99.99,,2013-03-02 01:01:00,
2013-03-01 18:11:00,32.0,26.0,-100.00,West,275,26.0,38.0,79,0.00,,,-99.99,,2013-03-02 01:11:00,
2013-03-01 18:21:00,32.0,26.0,-100.00,West,275,27.0,38.0,79,0.00,,,-99.99,,2013-03-02 01:21:00,
2013-03-01 18:31:00,32.0,26.0,-100.00,West,272,28.0,37.0,78,0.00,,,-99.99,,2013-03-02 01:31:00,
2013-03-01 18:41:00,32.0,26.0,-100.00,West,272,27.0,41.0,78,0.00,,,-99.99,,2013-03-02 01:41:00,
2013-03-01 18:51:00,32.0,26.0,-100.00,West,280,23.0,35.0,78,0.00,,,-99.99,,2013-03-02 01:51:00,
2013-03-01 19:01:00,32.0,25.0,-100.00,West,278,22.0,34.0,77,0.00,,,-99.99,,2013-03-02 02:01:00,
2013-03-01 19:11:00,32.0,25.0,-100.00,West,275,24.0,34.0,77,0.00,,,-99.99,,2013-03-02 02:11:00,
2013-03-01 19:21:00,31.0,25.0,-100.00,West,265,29.0,39.0,78,0.00,,,-99.99,,2013-03-02 02:21:00,
2013-03-01 19:32:00,32.0,25.0,-100.00,West,271,28.0,37.0,76,0.00,,,-99.99,,2013-03-02 02:32:00,
2013-03-01 19:41:00,32.0,25.0,-100.00,West,268,29.0,39.0,76,0.00,,,-99.99,,2013-03-02 02:41:00,
2013-03-01 19:52:00,32.0,25.0,-100.00,West,265,29.0,39.0,75,0.00,,,-99.99,,2013-03-02 02:52:00,
2013-03-01 20:01:00,32.0,25.0,-100.00,West,267,26.0,39.0,75,0.00,,,-99.99,,2013-03-02 03:01:00,
2013-03-01 20:11:00,32.0,25.0,-100.00,West,263,24.0,34.0,74,0.00,,,-99.99,,2013-03-02 03:11:00,
2013-03-01 20:21:00,32.0,26.0,-100.00,West,265,27.0,37.0,77,0.00,,,-99.99,,2013-03-02 03:21:00,
2013-03-01 20:32:00,32.0,25.0,-100.00,West,261,24.0,38.0,75,0.00,,,-99.99,,2013-03-02 03:32:00,
2013-03-01 20:41:00,33.0,25.0,-100.00,West,263,29.0,40.0,73,0.00,,,-99.99,,2013-03-02 03:41:00,
2013-03-01 20:52:00,33.0,25.0,-100.00,West,264,30.0,40.0,75,0.00,,,-99.99,,2013-03-02 03:52:00,
2013-03-01 21:01:00,33.0,25.0,-100.00,West,264,32.0,42.0,73,0.00,,,-99.99,,2013-03-02 04:01:00,
2013-03-01 21:11:00,33.0,25.0,-100.00,West,263,30.0,41.0,70,0.00,,,-99.99,,2013-03-02 04:11:00,
2013-03-01 21:21:00,33.0,25.0,-100.00,West,267,29.0,37.0,73,0.00,,,-99.99,,2013-03-02 04:21:00,
2013-03-01 21:32:00,33.0,25.0,-100.00,West,263,32.0,43.0,72,0.00,,,-99.99,,2013-03-02 04:32:00,
2013-03-01 21:41:00,32.0,25.0,-100.00,West,260,29.0,43.0,74,0.00,,,-99.99,,2013-03-02 04:41:00,
2013-03-01 21:51:00,32.0,25.0,-100.00,West,260,35.0,45.0,74,0.00,,,-99.99,,2013-03-02 04:51:00,
2013-03-01 22:01:00,32.0,25.0,-100.00,WSW,258,31.0,40.0,76,0.00,,,-99.99,,2013-03-02 05:01:00,
2013-03-01 22:12:00,32.0,25.0,-100.00,WSW,258,30.0,42.0,77,0.00,,,-99.99,,2013-03-02 05:12:00,
2013-03-01 22:22:00,32.0,25.0,-100.00,WSW,256,31.0,43.0,77,0.00,,,-99.99,,2013-03-02 05:22:00,
2013-03-01 22:32:00,31.0,25.0,-100.00,WSW,251,32.0,45.0,77,0.00,,,-99.99,,2013-03-02 05:32:00,
2013-03-01 22:41:00,31.0,25.0,-100.00,WSW,250,34.0,45.0,77,0.00,,,-99.99,,2013-03-02 05:41:00,
2013-03-01 22:52:00,31.0,25.0,-100.00,WSW,250,33.0,44.0,77,0.00,,,-99.99,,2013-03-02 05:52:00,
2013-03-01 23:01:00,31.0,25.0,-100.00,WSW,250,32.0,44.0,77,0.00,,,-99.99,,2013-03-02 06:01:00,
2013-03-01 23:11:00,31.0,25.0,-100.00,WSW,250,32.0,44.0,77,0.00,,,-99.99,,2013-03-02 06:11:00,
2013-03-01 23:21:00,31.0,25.0,-100.00,WSW,250,33.0,44.0,77,0.00,,,-99.99,,2013-03-02 06:21:00,
2013-03-01 23:31:00,31.0,25.0,-100.00,WSW,248,33.0,45.0,77,0.00,,,-99.99,,2013-03-02 06:31:00,
2013-03-01 23:41:00,31.0,25.0,-100.00,WSW,248,32.0,44.0,78,0.00,,,-99.99,,2013-03-02 06:41:00,
2013-03-01 23:51:00,31.0,25.0,-100.00,WSW,247,31.0,40.0,77,0.00,,,-99.99,,2013-03-02 06:51:00,